﻿<?xml version="1.0" encoding="utf-8"?><gpx creator="Garmin Desktop App" version="1.1" xsi:schemaLocation="http://www.topografix.com/GPX/1/1 http://www.topografix.com/GPX/1/1/gpx.xsd http://www.garmin.com/xmlschemas/WaypointExtension/v1 http://www8.garmin.com/xmlschemas/WaypointExtensionv1.xsd http://www.garmin.com/xmlschemas/TrackPointExtension/v1 http://www.garmin.com/xmlschemas/TrackPointExtensionv1.xsd http://www.garmin.com/xmlschemas/GpxExtensions/v3 http://www8.garmin.com/xmlschemas/GpxExtensionsv3.xsd http://www.garmin.com/xmlschemas/ActivityExtension/v1 http://www8.garmin.com/xmlschemas/ActivityExtensionv1.xsd http://www.garmin.com/xmlschemas/AdventuresExtensions/v1 http://www8.garmin.com/xmlschemas/AdventuresExtensionv1.xsd http://www.garmin.com/xmlschemas/PressureExtension/v1 http://www.garmin.com/xmlschemas/PressureExtensionv1.xsd http://www.garmin.com/xmlschemas/TripExtensions/v1 http://www.garmin.com/xmlschemas/TripExtensionsv1.xsd http://www.garmin.com/xmlschemas/TripMetaDataExtensions/v1 http://www.garmin.com/xmlschemas/TripMetaDataExtensionsv1.xsd http://www.garmin.com/xmlschemas/ViaPointTransportationModeExtensions/v1 http://www.garmin.com/xmlschemas/ViaPointTransportationModeExtensionsv1.xsd http://www.garmin.com/xmlschemas/CreationTimeExtension/v1 http://www.garmin.com/xmlschemas/CreationTimeExtensionsv1.xsd http://www.garmin.com/xmlschemas/AccelerationExtension/v1 http://www.garmin.com/xmlschemas/AccelerationExtensionv1.xsd http://www.garmin.com/xmlschemas/PowerExtension/v1 http://www.garmin.com/xmlschemas/PowerExtensionv1.xsd http://www.garmin.com/xmlschemas/VideoExtension/v1 http://www.garmin.com/xmlschemas/VideoExtensionv1.xsd" xmlns="http://www.topografix.com/GPX/1/1" xmlns:xsi="http://www.w3.org/2001/XMLSchema-instance" xmlns:wptx1="http://www.garmin.com/xmlschemas/WaypointExtension/v1" xmlns:gpxtrx="http://www.garmin.com/xmlschemas/GpxExtensions/v3" xmlns:gpxtpx="http://www.garmin.com/xmlschemas/TrackPointExtension/v1" xmlns:gpxx="http://www.garmin.com/xmlschemas/GpxExtensions/v3" xmlns:trp="http://www.garmin.com/xmlschemas/TripExtensions/v1" xmlns:adv="http://www.garmin.com/xmlschemas/AdventuresExtensions/v1" xmlns:prs="http://www.garmin.com/xmlschemas/PressureExtension/v1" xmlns:tmd="http://www.garmin.com/xmlschemas/TripMetaDataExtensions/v1" xmlns:vptm="http://www.garmin.com/xmlschemas/ViaPointTransportationModeExtensions/v1" xmlns:ctx="http://www.garmin.com/xmlschemas/CreationTimeExtension/v1" xmlns:gpxacc="http://www.garmin.com/xmlschemas/AccelerationExtension/v1" xmlns:gpxpx="http://www.garmin.com/xmlschemas/PowerExtension/v1" xmlns:vidx1="http://www.garmin.com/xmlschemas/VideoExtension/v1">

  <metadata>
    <link href="http://www.garmin.com">
      <text>Garmin International</text>
    </link>
    <time>2026-03-22T16:55:56Z</time>
    <bounds maxlat="50.191433988511562" maxlon="8.214180031791329" minlat="50.136755984276533" minlon="8.077210010960698" />
  </metadata>

  <trk>
    <name>AARHW_06_Zugmantel_Adolfseck_WD_20K</name>
    <extensions>
      <gpxx:TrackExtension>
        <gpxx:DisplayColor>DarkGray</gpxx:DisplayColor>
      </gpxx:TrackExtension>
    </extensions>
    <trkseg>
      <trkpt lat="50.190631002187729" lon="8.203033022582531">
        <ele>470.42620699999998</ele>
        <time>2026-03-22T10:44:38Z</time>
      </trkpt>
      <trkpt lat="50.190631002187729" lon="8.203030005097389">
        <ele>470.42620699999998</ele>
        <time>2026-03-22T10:44:44Z</time>
      </trkpt>
      <trkpt lat="50.190632008016109" lon="8.203102005645633">
        <ele>470.42620699999998</ele>
        <time>2026-03-22T10:46:03Z</time>
      </trkpt>
      <trkpt lat="50.190666960552335" lon="8.203211976215243">
        <ele>470.42620699999998</ele>
        <time>2026-03-22T10:46:08Z</time>
      </trkpt>
      <trkpt lat="50.191110027953982" lon="8.20492004044354">
        <ele>469.56391500000001</ele>
        <time>2026-03-22T10:46:54Z</time>
      </trkpt>
      <trkpt lat="50.191433988511562" lon="8.206783002242446">
        <ele>467.19529899999998</ele>
        <time>2026-03-22T10:47:43Z</time>
      </trkpt>
      <trkpt lat="50.191408004611731" lon="8.20685500279069">
        <ele>467.02527500000002</ele>
        <time>2026-03-22T10:48:28Z</time>
      </trkpt>
      <trkpt lat="50.191243970766664" lon="8.206932032480836">
        <ele>465.868694</ele>
        <time>2026-03-22T10:48:34Z</time>
      </trkpt>
      <trkpt lat="50.190793024376035" lon="8.20702699944377">
        <ele>462.57855899999998</ele>
        <time>2026-03-22T10:48:45Z</time>
      </trkpt>
      <trkpt lat="50.190376024693251" lon="8.20713697001338">
        <ele>459.518869</ele>
        <time>2026-03-22T10:48:55Z</time>
      </trkpt>
      <trkpt lat="50.18988199532032" lon="8.207278959453106">
        <ele>455.88664399999999</ele>
        <time>2026-03-22T10:49:08Z</time>
      </trkpt>
      <trkpt lat="50.189785016700625" lon="8.207304021343589">
        <ele>455.17495200000002</ele>
        <time>2026-03-22T10:49:11Z</time>
      </trkpt>
      <trkpt lat="50.18921596929431" lon="8.207416003569961">
        <ele>452.10389500000002</ele>
        <time>2026-03-22T10:49:27Z</time>
      </trkpt>
      <trkpt lat="50.189179005101323" lon="8.207428995519877">
        <ele>451.92935199999999</ele>
        <time>2026-03-22T10:49:28Z</time>
      </trkpt>
      <trkpt lat="50.188960991799831" lon="8.207510970532894">
        <ele>450.83288399999998</ele>
        <time>2026-03-22T10:49:59Z</time>
      </trkpt>
      <trkpt lat="50.188969038426876" lon="8.207539971917868">
        <ele>450.49678399999999</ele>
        <time>2026-03-22T10:51:25Z</time>
      </trkpt>
      <trkpt lat="50.18900097347796" lon="8.207840966060758">
        <ele>449.55418600000002</ele>
        <time>2026-03-22T10:51:35Z</time>
      </trkpt>
      <trkpt lat="50.189133994281292" lon="8.208377994596958">
        <ele>447.85708399999999</ele>
        <time>2026-03-22T10:51:49Z</time>
      </trkpt>
      <trkpt lat="50.189124019816518" lon="8.208654010668397">
        <ele>446.98355500000002</ele>
        <time>2026-03-22T10:52:18Z</time>
      </trkpt>
      <trkpt lat="50.18904497846961" lon="8.208852997049689">
        <ele>446.28454799999997</ele>
        <time>2026-03-22T10:52:25Z</time>
      </trkpt>
      <trkpt lat="50.188476014882326" lon="8.209394970908761">
        <ele>443.28720199999998</ele>
        <time>2026-03-22T10:52:49Z</time>
      </trkpt>
      <trkpt lat="50.18842002376914" lon="8.20941299200058">
        <ele>442.95697100000001</ele>
        <time>2026-03-22T10:53:35Z</time>
      </trkpt>
      <trkpt lat="50.188408037647605" lon="8.209374016150832">
        <ele>442.82718899999998</ele>
        <time>2026-03-22T10:53:41Z</time>
      </trkpt>
      <trkpt lat="50.188092039898038" lon="8.209092970937491">
        <ele>441.128106</ele>
        <time>2026-03-22T10:54:28Z</time>
      </trkpt>
      <trkpt lat="50.188116012141109" lon="8.209158014506102">
        <ele>440.61145399999998</ele>
        <time>2026-03-22T10:55:52Z</time>
      </trkpt>
      <trkpt lat="50.188363026827574" lon="8.209388013929129">
        <ele>439.28442100000001</ele>
        <time>2026-03-22T10:56:28Z</time>
      </trkpt>
      <trkpt lat="50.188063038513064" lon="8.209733013063669">
        <ele>437.64323300000001</ele>
        <time>2026-03-22T10:56:45Z</time>
      </trkpt>
      <trkpt lat="50.187323000282049" lon="8.210827019065619">
        <ele>434.565157</ele>
        <time>2026-03-22T10:57:17Z</time>
      </trkpt>
      <trkpt lat="50.187138011679053" lon="8.211106974631548">
        <ele>433.78806600000001</ele>
        <time>2026-03-22T10:57:24Z</time>
      </trkpt>
      <trkpt lat="50.186900971457362" lon="8.211326999589801">
        <ele>432.95605599999999</ele>
        <time>2026-03-22T10:57:30Z</time>
      </trkpt>
      <trkpt lat="50.186522025614977" lon="8.211598992347717">
        <ele>431.54144600000001</ele>
        <time>2026-03-22T10:58:00Z</time>
      </trkpt>
      <trkpt lat="50.185775030404329" lon="8.212136020883918">
        <ele>428.45112</ele>
        <time>2026-03-22T10:58:30Z</time>
      </trkpt>
      <trkpt lat="50.185464983806014" lon="8.212321009486914">
        <ele>427.17977000000002</ele>
        <time>2026-03-22T10:59:03Z</time>
      </trkpt>
      <trkpt lat="50.185175975784659" lon="8.21267799474299">
        <ele>425.78143</ele>
        <time>2026-03-22T10:59:18Z</time>
      </trkpt>
      <trkpt lat="50.184772973880172" lon="8.213514005765319">
        <ele>422.42025599999999</ele>
        <time>2026-03-22T11:00:07Z</time>
      </trkpt>
      <trkpt lat="50.184775991365314" lon="8.213571002706885">
        <ele>421.30709100000001</ele>
        <time>2026-03-22T11:00:39Z</time>
      </trkpt>
      <trkpt lat="50.184782026335597" lon="8.21358097717166">
        <ele>420.99827299999998</ele>
        <time>2026-03-22T11:01:43Z</time>
      </trkpt>
      <trkpt lat="50.184776997193694" lon="8.213563961908221">
        <ele>420.81930999999997</ele>
        <time>2026-03-22T11:03:30Z</time>
      </trkpt>
      <trkpt lat="50.184779008850455" lon="8.213554993271828">
        <ele>420.608653</ele>
        <time>2026-03-22T11:05:45Z</time>
      </trkpt>
      <trkpt lat="50.184799963608384" lon="8.213546024635434">
        <ele>420.108495</ele>
        <time>2026-03-22T11:07:30Z</time>
      </trkpt>
      <trkpt lat="50.184795018285513" lon="8.213548036292195">
        <ele>419.45284199999998</ele>
        <time>2026-03-22T11:08:46Z</time>
      </trkpt>
      <trkpt lat="50.184807004407048" lon="8.213554993271828">
        <ele>418.99589099999997</ele>
        <time>2026-03-22T11:10:09Z</time>
      </trkpt>
      <trkpt lat="50.184799041599035" lon="8.213563961908221">
        <ele>418.63165199999997</ele>
        <time>2026-03-22T11:11:56Z</time>
      </trkpt>
      <trkpt lat="50.184754030779004" lon="8.213619031012058">
        <ele>418.11309199999999</ele>
        <time>2026-03-22T11:12:55Z</time>
      </trkpt>
      <trkpt lat="50.184456976130605" lon="8.214175002649427">
        <ele>416.48186700000002</ele>
        <time>2026-03-22T11:13:31Z</time>
      </trkpt>
      <trkpt lat="50.184355974197388" lon="8.214180031791329">
        <ele>416.568556</ele>
        <time>2026-03-22T11:13:37Z</time>
      </trkpt>
      <trkpt lat="50.183024005964398" lon="8.213750040158629">
        <ele>417.75153799999998</ele>
        <time>2026-03-22T11:14:38Z</time>
      </trkpt>
      <trkpt lat="50.182904982939363" lon="8.213713997974992">
        <ele>417.86731800000001</ele>
        <time>2026-03-22T11:15:15Z</time>
      </trkpt>
      <trkpt lat="50.182941025123" lon="8.213686002418399">
        <ele>417.86226399999998</ele>
        <time>2026-03-22T11:16:46Z</time>
      </trkpt>
      <trkpt lat="50.182443978264928" lon="8.213762026280165">
        <ele>417.01352100000003</ele>
        <time>2026-03-22T11:17:31Z</time>
      </trkpt>
      <trkpt lat="50.181356007233262" lon="8.214087998494506">
        <ele>415.20451700000001</ele>
        <time>2026-03-22T11:18:16Z</time>
      </trkpt>
      <trkpt lat="50.180517984554172" lon="8.213980039581657">
        <ele>416.06058200000001</ele>
        <time>2026-03-22T11:18:52Z</time>
      </trkpt>
      <trkpt lat="50.180442966520786" lon="8.213934022933245">
        <ele>416.25268799999998</ele>
        <time>2026-03-22T11:19:20Z</time>
      </trkpt>
      <trkpt lat="50.180443972349167" lon="8.213931005448103">
        <ele>416.32787500000001</ele>
        <time>2026-03-22T11:20:12Z</time>
      </trkpt>
      <trkpt lat="50.180457970127463" lon="8.213634034618735">
        <ele>416.61748999999998</ele>
        <time>2026-03-22T11:20:22Z</time>
      </trkpt>
      <trkpt lat="50.180508010089397" lon="8.212351016700268">
        <ele>418.2919</ele>
        <time>2026-03-22T11:21:04Z</time>
      </trkpt>
      <trkpt lat="50.180553020909429" lon="8.211394976824522">
        <ele>421.477622</ele>
        <time>2026-03-22T11:21:39Z</time>
      </trkpt>
      <trkpt lat="50.180559977889061" lon="8.211344014853239">
        <ele>421.65068500000001</ele>
        <time>2026-03-22T11:21:41Z</time>
      </trkpt>
      <trkpt lat="50.180630972608924" lon="8.210424017161131">
        <ele>424.738922</ele>
        <time>2026-03-22T11:22:16Z</time>
      </trkpt>
      <trkpt lat="50.18066399730742" lon="8.209955971688032">
        <ele>426.42201</ele>
        <time>2026-03-22T11:23:06Z</time>
      </trkpt>
      <trkpt lat="50.180758964270353" lon="8.20868200622499">
        <ele>429.46151099999997</ele>
        <time>2026-03-22T11:24:01Z</time>
      </trkpt>
      <trkpt lat="50.180801041424274" lon="8.207928976044059">
        <ele>431.13755700000002</ele>
        <time>2026-03-22T11:24:33Z</time>
      </trkpt>
      <trkpt lat="50.180658968165517" lon="8.207857981324196">
        <ele>431.70498400000002</ele>
        <time>2026-03-22T11:24:44Z</time>
      </trkpt>
      <trkpt lat="50.179549036547542" lon="8.208284033462405">
        <ele>433.01857000000001</ele>
        <time>2026-03-22T11:25:22Z</time>
      </trkpt>
      <trkpt lat="50.17950402572751" lon="8.208291996270418">
        <ele>433.004638</ele>
        <time>2026-03-22T11:25:23Z</time>
      </trkpt>
      <trkpt lat="50.179207976907492" lon="8.208351004868746">
        <ele>432.91165100000001</ele>
        <time>2026-03-22T11:25:52Z</time>
      </trkpt>
      <trkpt lat="50.179059030488133" lon="8.208277998492122">
        <ele>432.85628100000002</ele>
        <time>2026-03-22T11:26:42Z</time>
      </trkpt>
      <trkpt lat="50.17907596193254" lon="8.208262994885445">
        <ele>432.84361899999999</ele>
        <time>2026-03-22T11:28:03Z</time>
      </trkpt>
      <trkpt lat="50.179045032709837" lon="8.208201974630356">
        <ele>432.82284299999998</ele>
        <time>2026-03-22T11:28:34Z</time>
      </trkpt>
      <trkpt lat="50.179060036316514" lon="8.208036012947559">
        <ele>432.78973300000001</ele>
        <time>2026-03-22T11:28:40Z</time>
      </trkpt>
      <trkpt lat="50.179477035999298" lon="8.205269984900951">
        <ele>435.64853299999999</ele>
        <time>2026-03-22T11:30:05Z</time>
      </trkpt>
      <trkpt lat="50.179474018514156" lon="8.205117015168071">
        <ele>435.87271099999998</ele>
        <time>2026-03-22T11:30:47Z</time>
      </trkpt>
      <trkpt lat="50.179626988247037" lon="8.204701021313667">
        <ele>436.241694</ele>
        <time>2026-03-22T11:31:04Z</time>
      </trkpt>
      <trkpt lat="50.178917963057756" lon="8.201644979417324">
        <ele>437.19082700000001</ele>
        <time>2026-03-22T11:32:06Z</time>
      </trkpt>
      <trkpt lat="50.177927976474166" lon="8.20019499398768">
        <ele>440.13117099999999</ele>
        <time>2026-03-22T11:32:56Z</time>
      </trkpt>
      <trkpt lat="50.177205037325621" lon="8.199362000450492">
        <ele>443.640897</ele>
        <time>2026-03-22T11:33:30Z</time>
      </trkpt>
      <trkpt lat="50.176614029332995" lon="8.198807034641504">
        <ele>446.34202399999998</ele>
        <time>2026-03-22T11:33:53Z</time>
      </trkpt>
      <trkpt lat="50.17464897595346" lon="8.19746701978147">
        <ele>447.95257600000002</ele>
        <time>2026-03-22T11:35:02Z</time>
      </trkpt>
      <trkpt lat="50.174031984061003" lon="8.19699302315712">
        <ele>444.89736399999998</ele>
        <time>2026-03-22T11:35:26Z</time>
      </trkpt>
      <trkpt lat="50.173850012943149" lon="8.196804011240602">
        <ele>443.92262099999999</ele>
        <time>2026-03-22T11:35:49Z</time>
      </trkpt>
      <trkpt lat="50.173189016059041" lon="8.196396986022592">
        <ele>440.76694600000002</ele>
        <time>2026-03-22T11:36:04Z</time>
      </trkpt>
      <trkpt lat="50.17297200858593" lon="8.196305958554149">
        <ele>439.83426300000002</ele>
        <time>2026-03-22T11:36:10Z</time>
      </trkpt>
      <trkpt lat="50.172228030860424" lon="8.195975963026285">
        <ele>436.62358</ele>
        <time>2026-03-22T11:36:26Z</time>
      </trkpt>
      <trkpt lat="50.171750010922551" lon="8.195783011615276">
        <ele>434.57441999999998</ele>
        <time>2026-03-22T11:36:35Z</time>
      </trkpt>
      <trkpt lat="50.171258999034762" lon="8.195563992485404">
        <ele>432.70365199999998</ele>
        <time>2026-03-22T11:36:44Z</time>
      </trkpt>
      <trkpt lat="50.17017999663949" lon="8.19510399363935">
        <ele>429.29831200000001</ele>
        <time>2026-03-22T11:37:00Z</time>
      </trkpt>
      <trkpt lat="50.16964003443718" lon="8.194847004488111">
        <ele>427.74615399999999</ele>
        <time>2026-03-22T11:37:08Z</time>
      </trkpt>
      <trkpt lat="50.167612032964826" lon="8.193961959332228">
        <ele>424.37169499999999</ele>
        <time>2026-03-22T11:37:44Z</time>
      </trkpt>
      <trkpt lat="50.166898984462023" lon="8.193674040958285">
        <ele>422.950671</ele>
        <time>2026-03-22T11:37:58Z</time>
      </trkpt>
      <trkpt lat="50.166704021394253" lon="8.193502966314554">
        <ele>422.51780000000002</ele>
        <time>2026-03-22T11:38:03Z</time>
      </trkpt>
      <trkpt lat="50.166664039716125" lon="8.193455021828413">
        <ele>422.40488099999999</ele>
        <time>2026-03-22T11:38:28Z</time>
      </trkpt>
      <trkpt lat="50.166019974276423" lon="8.19269897416234">
        <ele>419.27693399999998</ele>
        <time>2026-03-22T11:39:08Z</time>
      </trkpt>
      <trkpt lat="50.165496021509171" lon="8.192029008641839">
        <ele>415.69961799999999</ele>
        <time>2026-03-22T11:39:19Z</time>
      </trkpt>
      <trkpt lat="50.164977014064789" lon="8.191392989829183">
        <ele>412.21503200000001</ele>
        <time>2026-03-22T11:39:29Z</time>
      </trkpt>
      <trkpt lat="50.164496982470155" lon="8.190791001543403">
        <ele>410.553043</ele>
        <time>2026-03-22T11:39:38Z</time>
      </trkpt>
      <trkpt lat="50.163896000012755" lon="8.190060015767813">
        <ele>408.50030299999997</ele>
        <time>2026-03-22T11:39:50Z</time>
      </trkpt>
      <trkpt lat="50.163636999204755" lon="8.189834039658308">
        <ele>407.70113199999997</ele>
        <time>2026-03-22T11:39:55Z</time>
      </trkpt>
      <trkpt lat="50.163210025057197" lon="8.18949700333178">
        <ele>407.48565300000001</ele>
        <time>2026-03-22T11:40:04Z</time>
      </trkpt>
      <trkpt lat="50.162627985700965" lon="8.189537990838289">
        <ele>407.69261599999999</ele>
        <time>2026-03-22T11:40:21Z</time>
      </trkpt>
      <trkpt lat="50.161138018593192" lon="8.190070996060967">
        <ele>405.60254900000001</ele>
        <time>2026-03-22T11:41:14Z</time>
      </trkpt>
      <trkpt lat="50.160309970378876" lon="8.190479027107358">
        <ele>402.558965</ele>
        <time>2026-03-22T11:41:36Z</time>
      </trkpt>
      <trkpt lat="50.160077959299088" lon="8.190538035705686">
        <ele>401.734465</ele>
        <time>2026-03-22T11:41:41Z</time>
      </trkpt>
      <trkpt lat="50.159631036221981" lon="8.190562007948756">
        <ele>398.30729100000002</ele>
        <time>2026-03-22T11:41:56Z</time>
      </trkpt>
      <trkpt lat="50.159390978515148" lon="8.190605007112026">
        <ele>396.41931099999999</ele>
        <time>2026-03-22T11:42:03Z</time>
      </trkpt>
      <trkpt lat="50.159131977707148" lon="8.190451031550765">
        <ele>394.24295699999999</ele>
        <time>2026-03-22T11:42:09Z</time>
      </trkpt>
      <trkpt lat="50.158781027421355" lon="8.190122041851282">
        <ele>391.05157400000002</ele>
        <time>2026-03-22T11:42:17Z</time>
      </trkpt>
      <trkpt lat="50.158366039395332" lon="8.189721973612905">
        <ele>387.28037599999999</ele>
        <time>2026-03-22T11:42:27Z</time>
      </trkpt>
      <trkpt lat="50.158070996403694" lon="8.189070029184222">
        <ele>383.55530099999999</ele>
        <time>2026-03-22T11:42:38Z</time>
      </trkpt>
      <trkpt lat="50.157866980880499" lon="8.188462005928159">
        <ele>380.38582300000002</ele>
        <time>2026-03-22T11:42:46Z</time>
      </trkpt>
      <trkpt lat="50.157694984227419" lon="8.18794802762568">
        <ele>377.70717300000001</ele>
        <time>2026-03-22T11:42:53Z</time>
      </trkpt>
      <trkpt lat="50.157571015879512" lon="8.187763039022684">
        <ele>376.46414900000002</ele>
        <time>2026-03-22T11:42:57Z</time>
      </trkpt>
      <trkpt lat="50.15750396065414" lon="8.187683997675777">
        <ele>375.85895900000003</ele>
        <time>2026-03-22T11:43:00Z</time>
      </trkpt>
      <trkpt lat="50.157404970377684" lon="8.187352996319532">
        <ele>374.469582</ele>
        <time>2026-03-22T11:43:06Z</time>
      </trkpt>
      <trkpt lat="50.157388960942626" lon="8.187286024913192">
        <ele>374.32685400000003</ele>
        <time>2026-03-22T11:43:07Z</time>
      </trkpt>
      <trkpt lat="50.157255018129945" lon="8.186705997213721">
        <ele>373.09561500000001</ele>
        <time>2026-03-22T11:43:16Z</time>
      </trkpt>
      <trkpt lat="50.157045973464847" lon="8.185833021998406">
        <ele>371.23446899999999</ele>
        <time>2026-03-22T11:43:30Z</time>
      </trkpt>
      <trkpt lat="50.156952012330294" lon="8.18541401065886">
        <ele>370.34595999999999</ele>
        <time>2026-03-22T11:43:41Z</time>
      </trkpt>
      <trkpt lat="50.1569879706949" lon="8.185336980968714">
        <ele>369.90797400000002</ele>
        <time>2026-03-22T11:44:31Z</time>
      </trkpt>
      <trkpt lat="50.157000962644815" lon="8.185315020382404">
        <ele>369.804644</ele>
        <time>2026-03-22T11:45:06Z</time>
      </trkpt>
      <trkpt lat="50.157024012878537" lon="8.185294987633824">
        <ele>369.71793600000001</ele>
        <time>2026-03-22T11:45:10Z</time>
      </trkpt>
      <trkpt lat="50.157026024535298" lon="8.185120979323983">
        <ele>369.36704099999997</ele>
        <time>2026-03-22T11:45:17Z</time>
      </trkpt>
      <trkpt lat="50.156956035643816" lon="8.184187989681959">
        <ele>367.35897699999998</ele>
        <time>2026-03-22T11:45:57Z</time>
      </trkpt>
      <trkpt lat="50.156718995422125" lon="8.182763988152146">
        <ele>364.16367300000002</ele>
        <time>2026-03-22T11:46:28Z</time>
      </trkpt>
      <trkpt lat="50.156746990978718" lon="8.181552970781922">
        <ele>362.193083</ele>
        <time>2026-03-22T11:46:53Z</time>
      </trkpt>
      <trkpt lat="50.156476004049182" lon="8.180716037750244">
        <ele>361.053473</ele>
        <time>2026-03-22T11:47:12Z</time>
      </trkpt>
      <trkpt lat="50.156185990199447" lon="8.179948003962636">
        <ele>359.94546300000002</ele>
        <time>2026-03-22T11:47:30Z</time>
      </trkpt>
      <trkpt lat="50.155220981687307" lon="8.178134998306632">
        <ele>360.15065099999998</ele>
        <time>2026-03-22T11:48:16Z</time>
      </trkpt>
      <trkpt lat="50.154061010107398" lon="8.17628301680088">
        <ele>362.12784199999999</ele>
        <time>2026-03-22T11:49:07Z</time>
      </trkpt>
      <trkpt lat="50.152633991092443" lon="8.173816977068782">
        <ele>364.38013799999999</ele>
        <time>2026-03-22T11:50:05Z</time>
      </trkpt>
      <trkpt lat="50.151460021734238" lon="8.17106201313436">
        <ele>366.510741</ele>
        <time>2026-03-22T11:51:02Z</time>
      </trkpt>
      <trkpt lat="50.150310024619102" lon="8.169505996629596">
        <ele>369.76243299999999</ele>
        <time>2026-03-22T11:51:47Z</time>
      </trkpt>
      <trkpt lat="50.149998972192407" lon="8.169209025800228">
        <ele>371.18582400000003</ele>
        <time>2026-03-22T11:52:02Z</time>
      </trkpt>
      <trkpt lat="50.149914985522628" lon="8.169283960014582">
        <ele>371.72049800000002</ele>
        <time>2026-03-22T11:52:32Z</time>
      </trkpt>
      <trkpt lat="50.149943986907601" lon="8.169282032176852">
        <ele>371.95080899999999</ele>
        <time>2026-03-22T11:52:51Z</time>
      </trkpt>
      <trkpt lat="50.149893024936318" lon="8.169054966419935">
        <ele>372.752207</ele>
        <time>2026-03-22T11:53:01Z</time>
      </trkpt>
      <trkpt lat="50.149645004421473" lon="8.168777022510767">
        <ele>374.14772499999998</ele>
        <time>2026-03-22T11:53:15Z</time>
      </trkpt>
      <trkpt lat="50.149090960621834" lon="8.168204035609961">
        <ele>377.18480699999998</ele>
        <time>2026-03-22T11:53:44Z</time>
      </trkpt>
      <trkpt lat="50.14796300791204" lon="8.166943984106183">
        <ele>380.18802799999997</ele>
        <time>2026-03-22T11:54:38Z</time>
      </trkpt>
      <trkpt lat="50.146984001621604" lon="8.16517598927021">
        <ele>377.75647300000003</ele>
        <time>2026-03-22T11:55:26Z</time>
      </trkpt>
      <trkpt lat="50.146960029378533" lon="8.165118992328644">
        <ele>377.58107899999999</ele>
        <time>2026-03-22T11:55:27Z</time>
      </trkpt>
      <trkpt lat="50.146646965295076" lon="8.163989027962089">
        <ele>374.40221100000002</ele>
        <time>2026-03-22T11:55:45Z</time>
      </trkpt>
      <trkpt lat="50.146636990830302" lon="8.163938988000155">
        <ele>374.26751100000001</ele>
        <time>2026-03-22T11:55:46Z</time>
      </trkpt>
      <trkpt lat="50.146414032205939" lon="8.162886975333095">
        <ele>370.99251800000002</ele>
        <time>2026-03-22T11:56:00Z</time>
      </trkpt>
      <trkpt lat="50.146392993628979" lon="8.162798965349793">
        <ele>370.71203100000002</ele>
        <time>2026-03-22T11:56:01Z</time>
      </trkpt>
      <trkpt lat="50.146255027502775" lon="8.162166969850659">
        <ele>368.70590399999998</ele>
        <time>2026-03-22T11:56:26Z</time>
      </trkpt>
      <trkpt lat="50.146044977009296" lon="8.161527011543512">
        <ele>366.54179799999997</ele>
        <time>2026-03-22T11:56:55Z</time>
      </trkpt>
      <trkpt lat="50.145801985636353" lon="8.160634003579617">
        <ele>363.03608000000003</ele>
        <time>2026-03-22T11:57:04Z</time>
      </trkpt>
      <trkpt lat="50.145725961774588" lon="8.160320017486811">
        <ele>361.73236600000001</ele>
        <time>2026-03-22T11:57:07Z</time>
      </trkpt>
      <trkpt lat="50.145725961774588" lon="8.159370012581348">
        <ele>357.98314699999997</ele>
        <time>2026-03-22T11:57:16Z</time>
      </trkpt>
      <trkpt lat="50.145806008949876" lon="8.159090979024768">
        <ele>356.79593499999999</ele>
        <time>2026-03-22T11:57:19Z</time>
      </trkpt>
      <trkpt lat="50.145989991724491" lon="8.158423025161028">
        <ele>354.04869200000002</ele>
        <time>2026-03-22T11:57:26Z</time>
      </trkpt>
      <trkpt lat="50.146217979490757" lon="8.157623978331685">
        <ele>350.98722099999998</ele>
        <time>2026-03-22T11:57:34Z</time>
      </trkpt>
      <trkpt lat="50.146448984742165" lon="8.156791990622878">
        <ele>347.81342000000001</ele>
        <time>2026-03-22T11:57:43Z</time>
      </trkpt>
      <trkpt lat="50.146520985290408" lon="8.156522009521723">
        <ele>346.78990299999998</ele>
        <time>2026-03-22T11:57:46Z</time>
      </trkpt>
      <trkpt lat="50.146564990282059" lon="8.156199976801872">
        <ele>345.63703099999998</ele>
        <time>2026-03-22T11:57:50Z</time>
      </trkpt>
      <trkpt lat="50.146578988060355" lon="8.15593502484262">
        <ele>344.87508400000002</ele>
        <time>2026-03-22T11:57:54Z</time>
      </trkpt>
      <trkpt lat="50.146623998880386" lon="8.154347995296121">
        <ele>343.34578399999998</ele>
        <time>2026-03-22T11:58:38Z</time>
      </trkpt>
      <trkpt lat="50.146617963910103" lon="8.15430298447609">
        <ele>343.285392</ele>
        <time>2026-03-22T11:58:53Z</time>
      </trkpt>
      <trkpt lat="50.146543029695749" lon="8.154082959517837">
        <ele>343.044648</ele>
        <time>2026-03-22T11:58:59Z</time>
      </trkpt>
      <trkpt lat="50.145509038120508" lon="8.151277033612132">
        <ele>342.66904499999998</ele>
        <time>2026-03-22T11:59:51Z</time>
      </trkpt>
      <trkpt lat="50.145179964601994" lon="8.150559039786458">
        <ele>342.50528300000002</ele>
        <time>2026-03-22T12:00:04Z</time>
      </trkpt>
      <trkpt lat="50.144917024299502" lon="8.149366965517402">
        <ele>341.889408</ele>
        <time>2026-03-22T12:00:35Z</time>
      </trkpt>
      <trkpt lat="50.144791966304183" lon="8.147875992581248">
        <ele>341.030125</ele>
        <time>2026-03-22T12:01:03Z</time>
      </trkpt>
      <trkpt lat="50.144790038466454" lon="8.147802986204624">
        <ele>340.97359999999998</ele>
        <time>2026-03-22T12:01:04Z</time>
      </trkpt>
      <trkpt lat="50.144422994926572" lon="8.147160010412335">
        <ele>340.27119399999998</ele>
        <time>2026-03-22T12:01:17Z</time>
      </trkpt>
      <trkpt lat="50.143953021615744" lon="8.146592974662781">
        <ele>339.55256300000002</ele>
        <time>2026-03-22T12:01:33Z</time>
      </trkpt>
      <trkpt lat="50.143917985260487" lon="8.146587023511529">
        <ele>339.51005700000002</ele>
        <time>2026-03-22T12:01:35Z</time>
      </trkpt>
      <trkpt lat="50.143856965005398" lon="8.146590040996671">
        <ele>339.40214700000001</ele>
        <time>2026-03-22T12:02:16Z</time>
      </trkpt>
      <trkpt lat="50.143169984221458" lon="8.146540001034737">
        <ele>337.99719399999998</ele>
        <time>2026-03-22T12:02:37Z</time>
      </trkpt>
      <trkpt lat="50.143046015873551" lon="8.146334979683161">
        <ele>337.66483499999998</ele>
        <time>2026-03-22T12:02:43Z</time>
      </trkpt>
      <trkpt lat="50.142379989847541" lon="8.145177019760013">
        <ele>335.83225499999998</ele>
        <time>2026-03-22T12:03:08Z</time>
      </trkpt>
      <trkpt lat="50.142287034541368" lon="8.14493796788156">
        <ele>335.517787</ele>
        <time>2026-03-22T12:03:12Z</time>
      </trkpt>
      <trkpt lat="50.142171029001474" lon="8.144644014537334">
        <ele>335.12948899999998</ele>
        <time>2026-03-22T12:03:17Z</time>
      </trkpt>
      <trkpt lat="50.142046976834536" lon="8.143914034590125">
        <ele>334.27204799999998</ele>
        <time>2026-03-22T12:03:28Z</time>
      </trkpt>
      <trkpt lat="50.142032979056239" lon="8.143630977720022">
        <ele>333.952809</ele>
        <time>2026-03-22T12:03:32Z</time>
      </trkpt>
      <trkpt lat="50.141724022105336" lon="8.142951959744096">
        <ele>332.99160599999999</ele>
        <time>2026-03-22T12:03:44Z</time>
      </trkpt>
      <trkpt lat="50.141415987163782" lon="8.142501013353467">
        <ele>332.72856200000001</ele>
        <time>2026-03-22T12:03:54Z</time>
      </trkpt>
      <trkpt lat="50.141361001878977" lon="8.142005978152156">
        <ele>332.70728200000002</ele>
        <time>2026-03-22T12:04:03Z</time>
      </trkpt>
      <trkpt lat="50.141372988000512" lon="8.139626020565629">
        <ele>332.55017400000003</ele>
        <time>2026-03-22T12:04:50Z</time>
      </trkpt>
      <trkpt lat="50.141466027125716" lon="8.138262033462524">
        <ele>332.36873200000002</ele>
        <time>2026-03-22T12:05:13Z</time>
      </trkpt>
      <trkpt lat="50.141601981595159" lon="8.137375982478261">
        <ele>332.21381100000002</ele>
        <time>2026-03-22T12:05:27Z</time>
      </trkpt>
      <trkpt lat="50.141484970226884" lon="8.136925958096981">
        <ele>331.90940799999998</ele>
        <time>2026-03-22T12:05:33Z</time>
      </trkpt>
      <trkpt lat="50.140478974208236" lon="8.135205991566181">
        <ele>330.59246200000001</ele>
        <time>2026-03-22T12:06:00Z</time>
      </trkpt>
      <trkpt lat="50.140354000031948" lon="8.134754961356521">
        <ele>330.771795</ele>
        <time>2026-03-22T12:06:06Z</time>
      </trkpt>
      <trkpt lat="50.13984102755785" lon="8.132320018485189">
        <ele>331.83966700000002</ele>
        <time>2026-03-22T12:06:49Z</time>
      </trkpt>
      <trkpt lat="50.139514971524477" lon="8.131520971655846">
        <ele>332.52787799999999</ele>
        <time>2026-03-22T12:07:03Z</time>
      </trkpt>
      <trkpt lat="50.139371976256371" lon="8.130528973415494">
        <ele>333.273011</ele>
        <time>2026-03-22T12:07:18Z</time>
      </trkpt>
      <trkpt lat="50.139356972649693" lon="8.130180034786463">
        <ele>333.52704499999999</ele>
        <time>2026-03-22T12:07:23Z</time>
      </trkpt>
      <trkpt lat="50.139397038146853" lon="8.129852972924709">
        <ele>334.06380899999999</ele>
        <time>2026-03-22T12:07:28Z</time>
      </trkpt>
      <trkpt lat="50.139461997896433" lon="8.129485007375479">
        <ele>334.87593700000002</ele>
        <time>2026-03-22T12:07:34Z</time>
      </trkpt>
      <trkpt lat="50.139886038377881" lon="8.128111967816949">
        <ele>338.12509799999998</ele>
        <time>2026-03-22T12:08:07Z</time>
      </trkpt>
      <trkpt lat="50.140158031135798" lon="8.12748801894486">
        <ele>340.07844699999998</ele>
        <time>2026-03-22T12:08:52Z</time>
      </trkpt>
      <trkpt lat="50.140166999772191" lon="8.127219965681434">
        <ele>341.663636</ele>
        <time>2026-03-22T12:09:35Z</time>
      </trkpt>
      <trkpt lat="50.140415020287037" lon="8.126915032044053">
        <ele>344.141865</ele>
        <time>2026-03-22T12:10:20Z</time>
      </trkpt>
      <trkpt lat="50.140536976978183" lon="8.126713028177619">
        <ele>345.44765100000001</ele>
        <time>2026-03-22T12:10:30Z</time>
      </trkpt>
      <trkpt lat="50.140735963359475" lon="8.126039961352944">
        <ele>349.00558799999999</ele>
        <time>2026-03-22T12:11:05Z</time>
      </trkpt>
      <trkpt lat="50.141137959435582" lon="8.125872993841767">
        <ele>352.07478700000001</ele>
        <time>2026-03-22T12:11:38Z</time>
      </trkpt>
      <trkpt lat="50.141365025192499" lon="8.125803004950285">
        <ele>353.89672200000001</ele>
        <time>2026-03-22T12:11:56Z</time>
      </trkpt>
      <trkpt lat="50.141396038234234" lon="8.125812979415059">
        <ele>354.15653400000002</ele>
        <time>2026-03-22T12:11:58Z</time>
      </trkpt>
      <trkpt lat="50.141548002138734" lon="8.125765034928918">
        <ele>355.43218999999999</ele>
        <time>2026-03-22T12:12:10Z</time>
      </trkpt>
      <trkpt lat="50.141629977151752" lon="8.12574902549386">
        <ele>356.11044600000002</ele>
        <time>2026-03-22T12:12:16Z</time>
      </trkpt>
      <trkpt lat="50.141713041812181" lon="8.125735027715564">
        <ele>356.79565400000001</ele>
        <time>2026-03-22T12:12:22Z</time>
      </trkpt>
      <trkpt lat="50.141986962407827" lon="8.125541992485523">
        <ele>359.28339599999998</ele>
        <time>2026-03-22T12:12:45Z</time>
      </trkpt>
      <trkpt lat="50.142293991521001" lon="8.125176960602403">
        <ele>362.61634299999997</ele>
        <time>2026-03-22T12:13:40Z</time>
      </trkpt>
      <trkpt lat="50.142556009814143" lon="8.124664993956685">
        <ele>366.075536</ele>
        <time>2026-03-22T12:14:08Z</time>
      </trkpt>
      <trkpt lat="50.142239006236196" lon="8.124576983973384">
        <ele>369.426266</ele>
        <time>2026-03-22T12:14:36Z</time>
      </trkpt>
      <trkpt lat="50.142147978767753" lon="8.124586036428809">
        <ele>370.25387899999998</ele>
        <time>2026-03-22T12:14:42Z</time>
      </trkpt>
      <trkpt lat="50.142131969332695" lon="8.124587964266539">
        <ele>370.39956799999999</ele>
        <time>2026-03-22T12:14:43Z</time>
      </trkpt>
      <trkpt lat="50.141815971583128" lon="8.124442035332322">
        <ele>373.405936</ele>
        <time>2026-03-22T12:15:04Z</time>
      </trkpt>
      <trkpt lat="50.14171396382153" lon="8.12435201369226">
        <ele>374.47017</ele>
        <time>2026-03-22T12:15:11Z</time>
      </trkpt>
      <trkpt lat="50.141544984653592" lon="8.124086977913976">
        <ele>376.658613</ele>
        <time>2026-03-22T12:15:26Z</time>
      </trkpt>
      <trkpt lat="50.141436019912362" lon="8.123618010431528">
        <ele>379.56435099999999</ele>
        <time>2026-03-22T12:15:49Z</time>
      </trkpt>
      <trkpt lat="50.141378017142415" lon="8.123339982703328">
        <ele>381.26748400000002</ele>
        <time>2026-03-22T12:16:03Z</time>
      </trkpt>
      <trkpt lat="50.141250025480986" lon="8.122896999120712">
        <ele>384.04689500000001</ele>
        <time>2026-03-22T12:16:26Z</time>
      </trkpt>
      <trkpt lat="50.141061013564467" lon="8.122314037755132">
        <ele>387.21664900000002</ele>
        <time>2026-03-22T12:16:58Z</time>
      </trkpt>
      <trkpt lat="50.140818022191525" lon="8.121777009218931">
        <ele>390.42582800000002</ele>
        <time>2026-03-22T12:17:31Z</time>
      </trkpt>
      <trkpt lat="50.140669997781515" lon="8.121641976758838">
        <ele>391.727555</ele>
        <time>2026-03-22T12:17:41Z</time>
      </trkpt>
      <trkpt lat="50.140244029462337" lon="8.121247021481395">
        <ele>395.47357799999997</ele>
        <time>2026-03-22T12:18:08Z</time>
      </trkpt>
      <trkpt lat="50.140212010592222" lon="8.12121600843966">
        <ele>395.75827900000002</ele>
        <time>2026-03-22T12:18:10Z</time>
      </trkpt>
      <trkpt lat="50.139966001734138" lon="8.120973017066717">
        <ele>397.72915499999999</ele>
        <time>2026-03-22T12:18:27Z</time>
      </trkpt>
      <trkpt lat="50.139593007043004" lon="8.120643021538854">
        <ele>399.64183000000003</ele>
        <time>2026-03-22T12:18:52Z</time>
      </trkpt>
      <trkpt lat="50.139725022017956" lon="8.119870964437723">
        <ele>402.11918500000002</ele>
        <time>2026-03-22T12:19:26Z</time>
      </trkpt>
      <trkpt lat="50.140098016709089" lon="8.118979968130589">
        <ele>405.16276499999998</ele>
        <time>2026-03-22T12:20:04Z</time>
      </trkpt>
      <trkpt lat="50.14040102250874" lon="8.118000039830804">
        <ele>402.715191</ele>
        <time>2026-03-22T12:20:39Z</time>
      </trkpt>
      <trkpt lat="50.140489032492042" lon="8.116831015795469">
        <ele>399.57658300000003</ele>
        <time>2026-03-22T12:21:17Z</time>
      </trkpt>
      <trkpt lat="50.14048702083528" lon="8.116312008351088">
        <ele>398.19188400000002</ele>
        <time>2026-03-22T12:21:30Z</time>
      </trkpt>
      <trkpt lat="50.140409991145134" lon="8.116155015304685">
        <ele>397.60601600000001</ele>
        <time>2026-03-22T12:22:05Z</time>
      </trkpt>
      <trkpt lat="50.140306977555156" lon="8.115882016718388">
        <ele>396.70867700000002</ele>
        <time>2026-03-22T12:22:23Z</time>
      </trkpt>
      <trkpt lat="50.140302032232285" lon="8.115373989567161">
        <ele>395.28898500000003</ele>
        <time>2026-03-22T12:22:34Z</time>
      </trkpt>
      <trkpt lat="50.14042398892343" lon="8.114207983016968">
        <ele>391.97667000000001</ele>
        <time>2026-03-22T12:22:59Z</time>
      </trkpt>
      <trkpt lat="50.1404669880867" lon="8.113591996952891">
        <ele>390.23866900000002</ele>
        <time>2026-03-22T12:23:11Z</time>
      </trkpt>
      <trkpt lat="50.140421977266669" lon="8.11313702724874">
        <ele>388.571819</ele>
        <time>2026-03-22T12:23:44Z</time>
      </trkpt>
      <trkpt lat="50.140194995328784" lon="8.112266985699534">
        <ele>385.374031</ele>
        <time>2026-03-22T12:24:03Z</time>
      </trkpt>
      <trkpt lat="50.139759974554181" lon="8.111394010484219">
        <ele>381.63043900000002</ele>
        <time>2026-03-22T12:24:24Z</time>
      </trkpt>
      <trkpt lat="50.139644974842668" lon="8.111186977475882">
        <ele>380.703352</ele>
        <time>2026-03-22T12:24:29Z</time>
      </trkpt>
      <trkpt lat="50.139115992933512" lon="8.110654978081584">
        <ele>377.410506</ele>
        <time>2026-03-22T12:24:47Z</time>
      </trkpt>
      <trkpt lat="50.138615006580949" lon="8.110304027795792">
        <ele>374.574703</ele>
        <time>2026-03-22T12:25:02Z</time>
      </trkpt>
      <trkpt lat="50.138417026028037" lon="8.110226998105645">
        <ele>373.522719</ele>
        <time>2026-03-22T12:25:07Z</time>
      </trkpt>
      <trkpt lat="50.138192977756262" lon="8.110189028084278">
        <ele>372.34997499999997</ele>
        <time>2026-03-22T12:25:13Z</time>
      </trkpt>
      <trkpt lat="50.138074038550258" lon="8.109990041702986">
        <ele>371.44100300000002</ele>
        <time>2026-03-22T12:25:19Z</time>
      </trkpt>
      <trkpt lat="50.137950992211699" lon="8.109616963192821">
        <ele>371.20830599999999</ele>
        <time>2026-03-22T12:25:30Z</time>
      </trkpt>
      <trkpt lat="50.137946968898177" lon="8.108494961634278">
        <ele>370.72499099999999</ele>
        <time>2026-03-22T12:25:55Z</time>
      </trkpt>
      <trkpt lat="50.13784596696496" lon="8.108062958344817">
        <ele>370.52450800000003</ele>
        <time>2026-03-22T12:26:38Z</time>
      </trkpt>
      <trkpt lat="50.137653015553951" lon="8.106784969568253">
        <ele>373.21898900000002</ele>
        <time>2026-03-22T12:27:27Z</time>
      </trkpt>
      <trkpt lat="50.137638011947274" lon="8.106614984571934">
        <ele>374.02085899999997</ele>
        <time>2026-03-22T12:27:34Z</time>
      </trkpt>
      <trkpt lat="50.137602975592017" lon="8.105967985466123">
        <ele>377.05575199999998</ele>
        <time>2026-03-22T12:28:00Z</time>
      </trkpt>
      <trkpt lat="50.137591995298862" lon="8.105672020465136">
        <ele>378.44158599999997</ele>
        <time>2026-03-22T12:28:13Z</time>
      </trkpt>
      <trkpt lat="50.137545978650451" lon="8.105099033564329">
        <ele>381.18229400000001</ele>
        <time>2026-03-22T12:28:50Z</time>
      </trkpt>
      <trkpt lat="50.137532986700535" lon="8.104722015559673">
        <ele>383.18537300000003</ele>
        <time>2026-03-22T12:29:52Z</time>
      </trkpt>
      <trkpt lat="50.137514965608716" lon="8.104648003354669">
        <ele>383.59277900000001</ele>
        <time>2026-03-22T12:30:20Z</time>
      </trkpt>
      <trkpt lat="50.137413963675499" lon="8.104488998651505">
        <ele>384.30459400000001</ele>
        <time>2026-03-22T12:30:28Z</time>
      </trkpt>
      <trkpt lat="50.137012973427773" lon="8.103588027879596">
        <ele>387.80502200000001</ele>
        <time>2026-03-22T12:31:12Z</time>
      </trkpt>
      <trkpt lat="50.136755984276533" lon="8.103115037083626">
        <ele>389.77596499999999</ele>
        <time>2026-03-22T12:31:33Z</time>
      </trkpt>
      <trkpt lat="50.136837959289551" lon="8.101852973923087">
        <ele>388.96609100000001</ele>
        <time>2026-03-22T12:32:08Z</time>
      </trkpt>
      <trkpt lat="50.13698497787118" lon="8.101590033620596">
        <ele>387.02635099999998</ele>
        <time>2026-03-22T12:32:17Z</time>
      </trkpt>
      <trkpt lat="50.137225035578012" lon="8.101553991436958">
        <ele>384.737709</ele>
        <time>2026-03-22T12:32:45Z</time>
      </trkpt>
      <trkpt lat="50.137423016130924" lon="8.101697992533445">
        <ele>382.85027600000001</ele>
        <time>2026-03-22T12:32:52Z</time>
      </trkpt>
      <trkpt lat="50.137786958366632" lon="8.10194400139153">
        <ele>379.41948600000001</ele>
        <time>2026-03-22T12:33:04Z</time>
      </trkpt>
      <trkpt lat="50.137815959751606" lon="8.101956993341446">
        <ele>379.158838</ele>
        <time>2026-03-22T12:33:05Z</time>
      </trkpt>
      <trkpt lat="50.138175040483475" lon="8.101953975856304">
        <ele>376.25559500000003</ele>
        <time>2026-03-22T12:33:16Z</time>
      </trkpt>
      <trkpt lat="50.138809969648719" lon="8.102048020809889">
        <ele>372.69584300000002</ele>
        <time>2026-03-22T12:33:34Z</time>
      </trkpt>
      <trkpt lat="50.139172989875078" lon="8.102220017462969">
        <ele>370.57394199999999</ele>
        <time>2026-03-22T12:33:44Z</time>
      </trkpt>
      <trkpt lat="50.139208026230335" lon="8.102251030504704">
        <ele>370.34983699999998</ele>
        <time>2026-03-22T12:33:45Z</time>
      </trkpt>
      <trkpt lat="50.139442970976233" lon="8.102534003555775">
        <ele>368.69218899999998</ele>
        <time>2026-03-22T12:33:53Z</time>
      </trkpt>
      <trkpt lat="50.139573980122805" lon="8.102854024618864">
        <ele>367.325784</ele>
        <time>2026-03-22T12:34:00Z</time>
      </trkpt>
      <trkpt lat="50.139592001214623" lon="8.102916972711682">
        <ele>367.07961699999998</ele>
        <time>2026-03-22T12:34:01Z</time>
      </trkpt>
      <trkpt lat="50.139750000089407" lon="8.103519966825843">
        <ele>364.95570600000002</ele>
        <time>2026-03-22T12:34:14Z</time>
      </trkpt>
      <trkpt lat="50.13992702588439" lon="8.104052972048521">
        <ele>363.03261700000002</ele>
        <time>2026-03-22T12:34:26Z</time>
      </trkpt>
      <trkpt lat="50.140306977555156" lon="8.104807008057833">
        <ele>359.93954400000001</ele>
        <time>2026-03-22T12:34:44Z</time>
      </trkpt>
      <trkpt lat="50.140832019969821" lon="8.105069026350975">
        <ele>357.21181100000001</ele>
        <time>2026-03-22T12:35:03Z</time>
      </trkpt>
      <trkpt lat="50.141021031886339" lon="8.105211015790701">
        <ele>356.19721099999998</ele>
        <time>2026-03-22T12:35:25Z</time>
      </trkpt>
      <trkpt lat="50.141221024096012" lon="8.105479991063476">
        <ele>354.95994300000001</ele>
        <time>2026-03-22T12:35:34Z</time>
      </trkpt>
      <trkpt lat="50.14162503182888" lon="8.105584010481834">
        <ele>352.75170400000002</ele>
        <time>2026-03-22T12:36:02Z</time>
      </trkpt>
      <trkpt lat="50.141665013507009" lon="8.10557596385479">
        <ele>352.39691900000003</ele>
        <time>2026-03-22T12:36:46Z</time>
      </trkpt>
      <trkpt lat="50.141692003235221" lon="8.105522990226746">
        <ele>352.193915</ele>
        <time>2026-03-22T12:36:48Z</time>
      </trkpt>
      <trkpt lat="50.141772972419858" lon="8.105346970260143">
        <ele>351.54422599999998</ele>
        <time>2026-03-22T12:36:54Z</time>
      </trkpt>
      <trkpt lat="50.141730979084969" lon="8.105172039940953">
        <ele>350.96096999999997</ele>
        <time>2026-03-22T12:37:00Z</time>
      </trkpt>
      <trkpt lat="50.141654033213854" lon="8.105045976117253">
        <ele>350.30953299999999</ele>
        <time>2026-03-22T12:37:29Z</time>
      </trkpt>
      <trkpt lat="50.141568034887314" lon="8.104790998622775">
        <ele>349.44505700000002</ele>
        <time>2026-03-22T12:37:37Z</time>
      </trkpt>
      <trkpt lat="50.141430990770459" lon="8.104323958978057">
        <ele>348.58495900000003</ele>
        <time>2026-03-22T12:37:45Z</time>
      </trkpt>
      <trkpt lat="50.14140903018415" lon="8.104195967316628">
        <ele>348.37875500000001</ele>
        <time>2026-03-22T12:37:47Z</time>
      </trkpt>
      <trkpt lat="50.141244996339083" lon="8.103220984339714">
        <ele>346.72290900000002</ele>
        <time>2026-03-22T12:38:21Z</time>
      </trkpt>
      <trkpt lat="50.141243990510702" lon="8.102986039593816">
        <ele>346.32403199999999</ele>
        <time>2026-03-22T12:38:39Z</time>
      </trkpt>
      <trkpt lat="50.141137959435582" lon="8.102282965555787">
        <ele>345.18637200000001</ele>
        <time>2026-03-22T12:39:23Z</time>
      </trkpt>
      <trkpt lat="50.140978032723069" lon="8.101625991985202">
        <ele>344.42480899999998</ele>
        <time>2026-03-22T12:40:05Z</time>
      </trkpt>
      <trkpt lat="50.140748033300042" lon="8.100981004536152">
        <ele>343.71917000000002</ele>
        <time>2026-03-22T12:40:48Z</time>
      </trkpt>
      <trkpt lat="50.140537982806563" lon="8.100336017087102">
        <ele>343.02731999999997</ele>
        <time>2026-03-22T12:41:28Z</time>
      </trkpt>
      <trkpt lat="50.140245035290718" lon="8.099900996312499">
        <ele>342.430207</ele>
        <time>2026-03-22T12:42:09Z</time>
      </trkpt>
      <trkpt lat="50.139828035607934" lon="8.099235976114869">
        <ele>340.57603999999998</ele>
        <time>2026-03-22T12:42:40Z</time>
      </trkpt>
      <trkpt lat="50.139871034771204" lon="8.098971024155617">
        <ele>339.96978200000001</ele>
        <time>2026-03-22T12:43:09Z</time>
      </trkpt>
      <trkpt lat="50.14001302421093" lon="8.098685033619404">
        <ele>339.192701</ele>
        <time>2026-03-22T12:43:31Z</time>
      </trkpt>
      <trkpt lat="50.140192983672023" lon="8.098260993137956">
        <ele>338.080242</ele>
        <time>2026-03-22T12:44:16Z</time>
      </trkpt>
      <trkpt lat="50.140261966735125" lon="8.09799000620842">
        <ele>337.37265300000001</ele>
        <time>2026-03-22T12:45:05Z</time>
      </trkpt>
      <trkpt lat="50.140502024441957" lon="8.097225995734334">
        <ele>335.67016799999999</ele>
        <time>2026-03-22T12:45:50Z</time>
      </trkpt>
      <trkpt lat="50.140532031655312" lon="8.097178973257542">
        <ele>335.54629499999999</ele>
        <time>2026-03-22T12:45:54Z</time>
      </trkpt>
      <trkpt lat="50.140547035261989" lon="8.097107978537679">
        <ele>335.40876800000001</ele>
        <time>2026-03-22T12:45:58Z</time>
      </trkpt>
      <trkpt lat="50.140907960012555" lon="8.096082033589482">
        <ele>333.236199</ele>
        <time>2026-03-22T12:47:02Z</time>
      </trkpt>
      <trkpt lat="50.141009967774153" lon="8.095760000869632">
        <ele>332.570448</ele>
        <time>2026-03-22T12:47:22Z</time>
      </trkpt>
      <trkpt lat="50.141416992992163" lon="8.095327997580171">
        <ele>330.92325699999998</ele>
        <time>2026-03-22T12:48:07Z</time>
      </trkpt>
      <trkpt lat="50.141871040686965" lon="8.095133034512401">
        <ele>329.43428899999998</ele>
        <time>2026-03-22T12:48:33Z</time>
      </trkpt>
      <trkpt lat="50.142536982893944" lon="8.094739001244307">
        <ele>327.19836199999997</ele>
        <time>2026-03-22T12:49:10Z</time>
      </trkpt>
      <trkpt lat="50.142544023692608" lon="8.094736989587545">
        <ele>326.96912099999997</ele>
        <time>2026-03-22T12:50:32Z</time>
      </trkpt>
      <trkpt lat="50.143029000610113" lon="8.094636993482709">
        <ele>325.66779500000001</ele>
        <time>2026-03-22T12:51:25Z</time>
      </trkpt>
      <trkpt lat="50.143124973401427" lon="8.094636993482709">
        <ele>325.72296299999999</ele>
        <time>2026-03-22T12:51:31Z</time>
      </trkpt>
      <trkpt lat="50.143284983932972" lon="8.09457203373313">
        <ele>325.81873200000001</ele>
        <time>2026-03-22T12:51:41Z</time>
      </trkpt>
      <trkpt lat="50.144422994926572" lon="8.094490980729461">
        <ele>326.48846300000002</ele>
        <time>2026-03-22T12:52:40Z</time>
      </trkpt>
      <trkpt lat="50.14521399512887" lon="8.095156000927091">
        <ele>326.388462</ele>
        <time>2026-03-22T12:53:36Z</time>
      </trkpt>
      <trkpt lat="50.145413987338543" lon="8.095224983990192">
        <ele>326.29321299999998</ele>
        <time>2026-03-22T12:54:14Z</time>
      </trkpt>
      <trkpt lat="50.14562102034688" lon="8.094929018989205">
        <ele>326.15816999999998</ele>
        <time>2026-03-22T12:54:52Z</time>
      </trkpt>
      <trkpt lat="50.144676966592669" lon="8.093753959983587">
        <ele>324.00283000000002</ele>
        <time>2026-03-22T12:55:20Z</time>
      </trkpt>
      <trkpt lat="50.144498012959957" lon="8.093580035492778">
        <ele>323.31624599999998</ele>
        <time>2026-03-22T12:55:23Z</time>
      </trkpt>
      <trkpt lat="50.143879009410739" lon="8.093287004157901">
        <ele>321.19835499999999</ele>
        <time>2026-03-22T12:55:35Z</time>
      </trkpt>
      <trkpt lat="50.143815977498889" lon="8.093318017199636">
        <ele>320.96388999999999</ele>
        <time>2026-03-22T12:55:49Z</time>
      </trkpt>
      <trkpt lat="50.143683962523937" lon="8.093341989442706">
        <ele>320.52905199999998</ele>
        <time>2026-03-22T12:55:54Z</time>
      </trkpt>
      <trkpt lat="50.14327903278172" lon="8.093363028019667">
        <ele>322.02244999999999</ele>
        <time>2026-03-22T12:56:09Z</time>
      </trkpt>
      <trkpt lat="50.143035035580397" lon="8.093331009149551">
        <ele>324.01298300000002</ele>
        <time>2026-03-22T12:56:51Z</time>
      </trkpt>
      <trkpt lat="50.142632033675909" lon="8.093339977785945">
        <ele>327.17079100000001</ele>
        <time>2026-03-22T12:57:30Z</time>
      </trkpt>
      <trkpt lat="50.142247974872589" lon="8.093335032463074">
        <ele>330.186173</ele>
        <time>2026-03-22T12:58:09Z</time>
      </trkpt>
      <trkpt lat="50.142072960734367" lon="8.093230007216334">
        <ele>331.655485</ele>
        <time>2026-03-22T12:58:30Z</time>
      </trkpt>
      <trkpt lat="50.142072960734367" lon="8.09296103194356">
        <ele>333.118765</ele>
        <time>2026-03-22T12:58:55Z</time>
      </trkpt>
      <trkpt lat="50.14216298237443" lon="8.092637993395329">
        <ele>336.19106799999997</ele>
        <time>2026-03-22T12:59:25Z</time>
      </trkpt>
      <trkpt lat="50.142276976257563" lon="8.092414028942585">
        <ele>339.66493700000001</ele>
        <time>2026-03-22T12:59:49Z</time>
      </trkpt>
      <trkpt lat="50.142282005399466" lon="8.092410005629063">
        <ele>339.76881400000002</ele>
        <time>2026-03-22T12:59:50Z</time>
      </trkpt>
      <trkpt lat="50.142402034252882" lon="8.092575967311859">
        <ele>342.93777499999999</ele>
        <time>2026-03-22T13:00:17Z</time>
      </trkpt>
      <trkpt lat="50.142454002052546" lon="8.092652997002006">
        <ele>344.275554</ele>
        <time>2026-03-22T13:00:25Z</time>
      </trkpt>
      <trkpt lat="50.142502030357718" lon="8.09268401004374">
        <ele>345.23715499999997</ele>
        <time>2026-03-22T13:00:30Z</time>
      </trkpt>
      <trkpt lat="50.14265600591898" lon="8.092633970081806">
        <ele>348.29122599999999</ele>
        <time>2026-03-22T13:01:13Z</time>
      </trkpt>
      <trkpt lat="50.142729012295604" lon="8.092584013938904">
        <ele>349.77760799999999</ele>
        <time>2026-03-22T13:01:24Z</time>
      </trkpt>
      <trkpt lat="50.142863038927317" lon="8.092416040599346">
        <ele>353.38082600000001</ele>
        <time>2026-03-22T13:02:07Z</time>
      </trkpt>
      <trkpt lat="50.142868990078568" lon="8.092401959002018">
        <ele>353.58037000000002</ele>
        <time>2026-03-22T13:02:09Z</time>
      </trkpt>
      <trkpt lat="50.142846023663878" lon="8.092148993164301">
        <ele>356.91920399999998</ele>
        <time>2026-03-22T13:02:49Z</time>
      </trkpt>
      <trkpt lat="50.14280897565186" lon="8.091903990134597">
        <ele>360.06731600000001</ele>
        <time>2026-03-22T13:03:51Z</time>
      </trkpt>
      <trkpt lat="50.142794977873564" lon="8.091613976284862">
        <ele>363.57729</ele>
        <time>2026-03-22T13:04:23Z</time>
      </trkpt>
      <trkpt lat="50.14278500340879" lon="8.09156896546483">
        <ele>364.31401399999999</ele>
        <time>2026-03-22T13:04:48Z</time>
      </trkpt>
      <trkpt lat="50.142761031165719" lon="8.091449020430446">
        <ele>365.80474199999998</ele>
        <time>2026-03-22T13:04:55Z</time>
      </trkpt>
      <trkpt lat="50.142774023115635" lon="8.091360004618764">
        <ele>366.89801499999999</ele>
        <time>2026-03-22T13:05:01Z</time>
      </trkpt>
      <trkpt lat="50.142906960099936" lon="8.090950967743993">
        <ele>368.377543</ele>
        <time>2026-03-22T13:05:44Z</time>
      </trkpt>
      <trkpt lat="50.14293503947556" lon="8.090882990509272">
        <ele>368.58225299999998</ele>
        <time>2026-03-22T13:05:48Z</time>
      </trkpt>
      <trkpt lat="50.14315296895802" lon="8.090474037453532">
        <ele>369.95917100000003</ele>
        <time>2026-03-22T13:06:28Z</time>
      </trkpt>
      <trkpt lat="50.143369976431131" lon="8.089586980640888">
        <ele>372.37961300000001</ele>
        <time>2026-03-22T13:07:08Z</time>
      </trkpt>
      <trkpt lat="50.143615985289216" lon="8.089070990681648">
        <ele>374.03380700000002</ele>
        <time>2026-03-22T13:07:50Z</time>
      </trkpt>
      <trkpt lat="50.143659990280867" lon="8.088987004011869">
        <ele>374.309935</ele>
        <time>2026-03-22T13:08:00Z</time>
      </trkpt>
      <trkpt lat="50.143753029406071" lon="8.088728003203869">
        <ele>373.42331300000001</ele>
        <time>2026-03-22T13:08:29Z</time>
      </trkpt>
      <trkpt lat="50.143775995820761" lon="8.088676035404205">
        <ele>373.213864</ele>
        <time>2026-03-22T13:08:35Z</time>
      </trkpt>
      <trkpt lat="50.143890995532274" lon="8.088306980207562">
        <ele>371.96507100000002</ele>
        <time>2026-03-22T13:08:50Z</time>
      </trkpt>
      <trkpt lat="50.143856965005398" lon="8.087822003290057">
        <ele>370.43622599999998</ele>
        <time>2026-03-22T13:09:30Z</time>
      </trkpt>
      <trkpt lat="50.143970036879182" lon="8.087945971637964">
        <ele>369.59488499999998</ele>
        <time>2026-03-22T13:10:38Z</time>
      </trkpt>
      <trkpt lat="50.144086964428425" lon="8.087881011888385">
        <ele>369.00796200000002</ele>
        <time>2026-03-22T13:10:46Z</time>
      </trkpt>
      <trkpt lat="50.144590968266129" lon="8.087558979168534">
        <ele>366.36317400000001</ele>
        <time>2026-03-22T13:11:23Z</time>
      </trkpt>
      <trkpt lat="50.145152974873781" lon="8.087374996393919">
        <ele>363.65144400000003</ele>
        <time>2026-03-22T13:11:59Z</time>
      </trkpt>
      <trkpt lat="50.145582966506481" lon="8.087493013590574">
        <ele>361.55884900000001</ele>
        <time>2026-03-22T13:12:41Z</time>
      </trkpt>
      <trkpt lat="50.145629988983274" lon="8.08752897195518">
        <ele>361.30143700000002</ele>
        <time>2026-03-22T13:12:52Z</time>
      </trkpt>
      <trkpt lat="50.145736020058393" lon="8.087666016072035">
        <ele>360.65761900000001</ele>
        <time>2026-03-22T13:13:00Z</time>
      </trkpt>
      <trkpt lat="50.145874992012978" lon="8.087851004675031">
        <ele>359.794961</ele>
        <time>2026-03-22T13:13:10Z</time>
      </trkpt>
      <trkpt lat="50.146060986444354" lon="8.087867014110088">
        <ele>358.921043</ele>
        <time>2026-03-22T13:13:19Z</time>
      </trkpt>
      <trkpt lat="50.147332018241286" lon="8.087508017197251">
        <ele>355.72569399999998</ele>
        <time>2026-03-22T13:14:21Z</time>
      </trkpt>
      <trkpt lat="50.147788999602199" lon="8.087267959490418">
        <ele>354.85198800000001</ele>
        <time>2026-03-22T13:15:08Z</time>
      </trkpt>
      <trkpt lat="50.14837397262454" lon="8.087070984765887">
        <ele>353.82800300000002</ele>
        <time>2026-03-22T13:15:39Z</time>
      </trkpt>
      <trkpt lat="50.149392960593104" lon="8.086779965087771">
        <ele>352.14905900000002</ele>
        <time>2026-03-22T13:16:31Z</time>
      </trkpt>
      <trkpt lat="50.149795962497592" lon="8.086519036442041">
        <ele>351.44717000000003</ele>
        <time>2026-03-22T13:16:52Z</time>
      </trkpt>
      <trkpt lat="50.150394011288881" lon="8.086457010358572">
        <ele>350.63446699999997</ele>
        <time>2026-03-22T13:17:30Z</time>
      </trkpt>
      <trkpt lat="50.15054002404213" lon="8.086257018148899">
        <ele>350.37293299999999</ele>
        <time>2026-03-22T13:17:44Z</time>
      </trkpt>
      <trkpt lat="50.150340031832457" lon="8.085420001298189">
        <ele>349.54067900000001</ele>
        <time>2026-03-22T13:18:18Z</time>
      </trkpt>
      <trkpt lat="50.150387976318598" lon="8.085245992988348">
        <ele>349.38290899999998</ele>
        <time>2026-03-22T13:18:24Z</time>
      </trkpt>
      <trkpt lat="50.150459976866841" lon="8.08492798358202">
        <ele>349.09044499999999</ele>
        <time>2026-03-22T13:19:08Z</time>
      </trkpt>
      <trkpt lat="50.150644965469837" lon="8.084708964452148">
        <ele>348.83752700000002</ele>
        <time>2026-03-22T13:19:33Z</time>
      </trkpt>
      <trkpt lat="50.150696011260152" lon="8.084632018581033">
        <ele>348.76397800000001</ele>
        <time>2026-03-22T13:19:39Z</time>
      </trkpt>
      <trkpt lat="50.150945959612727" lon="8.084188029170036">
        <ele>348.35243000000003</ele>
        <time>2026-03-22T13:20:20Z</time>
      </trkpt>
      <trkpt lat="50.151137989014387" lon="8.083816962316632">
        <ele>348.00984899999997</ele>
        <time>2026-03-22T13:21:33Z</time>
      </trkpt>
      <trkpt lat="50.151813989505172" lon="8.083827020600438">
        <ele>347.260019</ele>
        <time>2026-03-22T13:22:13Z</time>
      </trkpt>
      <trkpt lat="50.151998978108168" lon="8.083946965634823">
        <ele>348.42548599999998</ele>
        <time>2026-03-22T13:22:23Z</time>
      </trkpt>
      <trkpt lat="50.152106015011668" lon="8.083901032805443">
        <ele>349.534696</ele>
        <time>2026-03-22T13:23:05Z</time>
      </trkpt>
      <trkpt lat="50.152356969192624" lon="8.0842399969697">
        <ele>352.58733999999998</ele>
        <time>2026-03-22T13:23:55Z</time>
      </trkpt>
      <trkpt lat="50.152567019686103" lon="8.084613997489214">
        <ele>355.44962299999997</ele>
        <time>2026-03-22T13:24:35Z</time>
      </trkpt>
      <trkpt lat="50.152800036594272" lon="8.084990009665489">
        <ele>358.45469100000003</ele>
        <time>2026-03-22T13:25:09Z</time>
      </trkpt>
      <trkpt lat="50.152870025485754" lon="8.085119007155299">
        <ele>359.42149899999998</ele>
        <time>2026-03-22T13:25:20Z</time>
      </trkpt>
      <trkpt lat="50.153016038239002" lon="8.085628962144256">
        <ele>362.626284</ele>
        <time>2026-03-22T13:25:52Z</time>
      </trkpt>
      <trkpt lat="50.153117040172219" lon="8.085735999047756">
        <ele>363.65423600000003</ele>
        <time>2026-03-22T13:26:29Z</time>
      </trkpt>
      <trkpt lat="50.153208989650011" lon="8.085733987390995">
        <ele>364.22464600000001</ele>
        <time>2026-03-22T13:26:37Z</time>
      </trkpt>
      <trkpt lat="50.153264980763197" lon="8.085708003491163">
        <ele>364.58841799999999</ele>
        <time>2026-03-22T13:26:44Z</time>
      </trkpt>
      <trkpt lat="50.153330024331808" lon="8.085587974637747">
        <ele>365.22151200000002</ele>
        <time>2026-03-22T13:26:53Z</time>
      </trkpt>
      <trkpt lat="50.153388027101755" lon="8.084994032979012">
        <ele>367.70283899999998</ele>
        <time>2026-03-22T13:27:41Z</time>
      </trkpt>
      <trkpt lat="50.153312003239989" lon="8.084172019734979">
        <ele>371.00334600000002</ele>
        <time>2026-03-22T13:28:23Z</time>
      </trkpt>
      <trkpt lat="50.153305968269706" lon="8.083373978734016">
        <ele>374.18564099999998</ele>
        <time>2026-03-22T13:29:03Z</time>
      </trkpt>
      <trkpt lat="50.15337998047471" lon="8.083169041201472">
        <ele>374.88892299999998</ele>
        <time>2026-03-22T13:29:16Z</time>
      </trkpt>
      <trkpt lat="50.153563041239977" lon="8.082956979051232">
        <ele>375.85490199999998</ele>
        <time>2026-03-22T13:29:35Z</time>
      </trkpt>
      <trkpt lat="50.153889013454318" lon="8.082871986553073">
        <ele>377.32427300000001</ele>
        <time>2026-03-22T13:30:02Z</time>
      </trkpt>
      <trkpt lat="50.154028991237283" lon="8.083097962662578">
        <ele>378.17527799999999</ele>
        <time>2026-03-22T13:30:18Z</time>
      </trkpt>
      <trkpt lat="50.154277011752129" lon="8.083494007587433">
        <ele>379.70483999999999</ele>
        <time>2026-03-22T13:31:04Z</time>
      </trkpt>
      <trkpt lat="50.154712032526731" lon="8.083537006750703">
        <ele>381.59593899999999</ele>
        <time>2026-03-22T13:31:56Z</time>
      </trkpt>
      <trkpt lat="50.154762994498014" lon="8.083388982340694">
        <ele>381.86587300000002</ele>
        <time>2026-03-22T13:32:05Z</time>
      </trkpt>
      <trkpt lat="50.154871959239244" lon="8.082531010732055">
        <ele>379.78519</ele>
        <time>2026-03-22T13:32:53Z</time>
      </trkpt>
      <trkpt lat="50.154926022514701" lon="8.0821349658072">
        <ele>378.79622599999999</ele>
        <time>2026-03-22T13:33:51Z</time>
      </trkpt>
      <trkpt lat="50.155352996662259" lon="8.081268025562167">
        <ele>375.94987800000001</ele>
        <time>2026-03-22T13:34:19Z</time>
      </trkpt>
      <trkpt lat="50.155894970521331" lon="8.080906011164188">
        <ele>372.36024400000002</ele>
        <time>2026-03-22T13:34:38Z</time>
      </trkpt>
      <trkpt lat="50.155926989391446" lon="8.080902993679047">
        <ele>372.134728</ele>
        <time>2026-03-22T13:34:40Z</time>
      </trkpt>
      <trkpt lat="50.156227983534336" lon="8.080868041142821">
        <ele>369.95573999999999</ele>
        <time>2026-03-22T13:35:09Z</time>
      </trkpt>
      <trkpt lat="50.156266959384084" lon="8.0808449909091">
        <ele>369.66245500000002</ele>
        <time>2026-03-22T13:35:10Z</time>
      </trkpt>
      <trkpt lat="50.156478015705943" lon="8.080657990649343">
        <ele>367.94516900000002</ele>
        <time>2026-03-22T13:35:20Z</time>
      </trkpt>
      <trkpt lat="50.156511962413788" lon="8.080647010356188">
        <ele>367.70090399999998</ele>
        <time>2026-03-22T13:35:22Z</time>
      </trkpt>
      <trkpt lat="50.156741961836815" lon="8.081314964219928">
        <ele>364.14136000000002</ele>
        <time>2026-03-22T13:35:41Z</time>
      </trkpt>
      <trkpt lat="50.156850004568696" lon="8.081656023859978">
        <ele>362.44695200000001</ele>
        <time>2026-03-22T13:36:12Z</time>
      </trkpt>
      <trkpt lat="50.157182011753321" lon="8.082288019359112">
        <ele>359.15813400000002</ele>
        <time>2026-03-22T13:36:34Z</time>
      </trkpt>
      <trkpt lat="50.15745903365314" lon="8.082760004326701">
        <ele>356.56120299999998</ele>
        <time>2026-03-22T13:37:12Z</time>
      </trkpt>
      <trkpt lat="50.157607980072498" lon="8.082853965461254">
        <ele>355.55448999999999</ele>
        <time>2026-03-22T13:37:19Z</time>
      </trkpt>
      <trkpt lat="50.157823981717229" lon="8.082962008193135">
        <ele>354.129885</ele>
        <time>2026-03-22T13:37:29Z</time>
      </trkpt>
      <trkpt lat="50.158108966425061" lon="8.083178009837866">
        <ele>352.14967200000001</ele>
        <time>2026-03-22T13:37:40Z</time>
      </trkpt>
      <trkpt lat="50.158433010801673" lon="8.083336008712649">
        <ele>350.77040499999998</ele>
        <time>2026-03-22T13:37:52Z</time>
      </trkpt>
      <trkpt lat="50.158472992479801" lon="8.083388982340694">
        <ele>350.61612700000001</ele>
        <time>2026-03-22T13:37:54Z</time>
      </trkpt>
      <trkpt lat="50.15864297747612" lon="8.08402500115335">
        <ele>349.29525599999999</ele>
        <time>2026-03-22T13:38:08Z</time>
      </trkpt>
      <trkpt lat="50.158694023266435" lon="8.084807032719255">
        <ele>347.80821700000001</ele>
        <time>2026-03-22T13:38:25Z</time>
      </trkpt>
      <trkpt lat="50.158867025747895" lon="8.084824969992042">
        <ele>347.29099000000002</ele>
        <time>2026-03-22T13:38:33Z</time>
      </trkpt>
      <trkpt lat="50.159431966021657" lon="8.084630006924272">
        <ele>345.17287599999997</ele>
        <time>2026-03-22T13:38:53Z</time>
      </trkpt>
      <trkpt lat="50.159598011523485" lon="8.083930034190416">
        <ele>342.83746200000002</ele>
        <time>2026-03-22T13:39:09Z</time>
      </trkpt>
      <trkpt lat="50.159604968503118" lon="8.083876976743341">
        <ele>342.66925199999997</ele>
        <time>2026-03-22T13:39:10Z</time>
      </trkpt>
      <trkpt lat="50.159779982641339" lon="8.083098968490958">
        <ele>340.07635699999997</ele>
        <time>2026-03-22T13:39:26Z</time>
      </trkpt>
      <trkpt lat="50.159929012879729" lon="8.083054041489959">
        <ele>339.322361</ele>
        <time>2026-03-22T13:39:31Z</time>
      </trkpt>
      <trkpt lat="50.160182984545827" lon="8.083045994862914">
        <ele>338.089156</ele>
        <time>2026-03-22T13:39:37Z</time>
      </trkpt>
      <trkpt lat="50.160594033077359" lon="8.08275799266994">
        <ele>336.34349400000002</ele>
        <time>2026-03-22T13:39:47Z</time>
      </trkpt>
      <trkpt lat="50.160788996145129" lon="8.082537967711687">
        <ele>335.530396</ele>
        <time>2026-03-22T13:39:52Z</time>
      </trkpt>
      <trkpt lat="50.160900978371501" lon="8.082367982715368">
        <ele>335.00256899999999</ele>
        <time>2026-03-22T13:39:55Z</time>
      </trkpt>
      <trkpt lat="50.161207001656294" lon="8.081809999421239">
        <ele>333.41063700000001</ele>
        <time>2026-03-22T13:40:05Z</time>
      </trkpt>
      <trkpt lat="50.161309009417892" lon="8.08157597668469">
        <ele>332.79801300000003</ele>
        <time>2026-03-22T13:40:09Z</time>
      </trkpt>
      <trkpt lat="50.161497015506029" lon="8.080971976742148">
        <ele>331.34298000000001</ele>
        <time>2026-03-22T13:40:21Z</time>
      </trkpt>
      <trkpt lat="50.161657026037574" lon="8.080402007326484">
        <ele>327.87953499999998</ele>
        <time>2026-03-22T13:40:42Z</time>
      </trkpt>
      <trkpt lat="50.161697007715702" lon="8.080267980694771">
        <ele>327.055498</ele>
        <time>2026-03-22T13:40:47Z</time>
      </trkpt>
      <trkpt lat="50.16175601631403" lon="8.079689964652062">
        <ele>323.71928500000001</ele>
        <time>2026-03-22T13:41:11Z</time>
      </trkpt>
      <trkpt lat="50.161723997443914" lon="8.079112032428384">
        <ele>320.48687100000001</ele>
        <time>2026-03-22T13:41:19Z</time>
      </trkpt>
      <trkpt lat="50.161798009648919" lon="8.078580033034086">
        <ele>317.41787900000003</ele>
        <time>2026-03-22T13:41:27Z</time>
      </trkpt>
      <trkpt lat="50.161840002983809" lon="8.078467966988683">
        <ele>316.69498700000003</ele>
        <time>2026-03-22T13:41:29Z</time>
      </trkpt>
      <trkpt lat="50.161861041560769" lon="8.078408036381006">
        <ele>316.31414599999999</ele>
        <time>2026-03-22T13:41:30Z</time>
      </trkpt>
      <trkpt lat="50.161976963281631" lon="8.078206032514572">
        <ele>314.510469</ele>
        <time>2026-03-22T13:41:34Z</time>
      </trkpt>
      <trkpt lat="50.162188019603491" lon="8.077900009229779">
        <ele>311.19620500000002</ele>
        <time>2026-03-22T13:41:41Z</time>
      </trkpt>
      <trkpt lat="50.16231601126492" lon="8.077568002045155">
        <ele>308.30128500000001</ele>
        <time>2026-03-22T13:41:48Z</time>
      </trkpt>
      <trkpt lat="50.162161029875278" lon="8.077248986810446">
        <ele>305.19039800000002</ele>
        <time>2026-03-22T13:41:55Z</time>
      </trkpt>
      <trkpt lat="50.161817036569118" lon="8.077210010960698">
        <ele>301.12724500000002</ele>
        <time>2026-03-22T13:42:02Z</time>
      </trkpt>
      <trkpt lat="50.161574967205524" lon="8.077499018982053">
        <ele>297.58819599999998</ele>
        <time>2026-03-22T13:42:08Z</time>
      </trkpt>
      <trkpt lat="50.161540014669299" lon="8.07755802758038">
        <ele>296.995451</ele>
        <time>2026-03-22T13:42:09Z</time>
      </trkpt>
      <trkpt lat="50.161316972225904" lon="8.077886011451483">
        <ele>295.00211200000001</ele>
        <time>2026-03-22T13:42:15Z</time>
      </trkpt>
      <trkpt lat="50.161082027480006" lon="8.078708024695516">
        <ele>295.00211200000001</ele>
        <time>2026-03-22T13:42:36Z</time>
      </trkpt>
      <trkpt lat="50.161030981689692" lon="8.078771978616715">
        <ele>295.00211200000001</ele>
        <time>2026-03-22T13:42:45Z</time>
      </trkpt>
      <trkpt lat="50.16098496504128" lon="8.078793017193675">
        <ele>295.00211200000001</ele>
        <time>2026-03-22T13:42:50Z</time>
      </trkpt>
      <trkpt lat="50.160946995019913" lon="8.078912040218711">
        <ele>295.00211200000001</ele>
        <time>2026-03-22T13:42:58Z</time>
      </trkpt>
      <trkpt lat="50.161055959761143" lon="8.079393999651074">
        <ele>295.00211200000001</ele>
        <time>2026-03-22T13:43:26Z</time>
      </trkpt>
      <trkpt lat="50.160915981978178" lon="8.079705974087119">
        <ele>295.00211200000001</ele>
        <time>2026-03-22T13:43:54Z</time>
      </trkpt>
    </trkseg>
  </trk>

</gpx>